sensor_id;sensor_type;location;lat;lon;timestamp;pressure;altitude;pressure_sealevel;temperature;humidity
11415;BME280;5763;42.714;23.244;2023-12-14T00:00:53;93391.59;;;7.97;67.61
11415;BME280;5763;42.714;23.244;2023-12-14T00:03:20;93507.25;;;8.66;68.06
11415;BME280;5763;42.714;23.244;2023-12-14T00:06:06;93468.47;;;8.48;68.47
11415;BME280;5763;42.714;23.244;2023-12-14T00:08:48;93359.38;;;7.72;68.05
11415;BME280;5763;42.714;23.244;2023-12-14T00:11:16;93421.88;;;8.22;68.50
11415;BME280;5763;42.714;23.244;2023-12-14T00:13:47;93422.81;;;7.87;68.66
11415;BME280;5763;42.714;23.244;2023-12-14T00:16:15;93483.81;;;8.60;68.39
11415;BME280;5763;42.714;23.244;2023-12-14T00:18:42;93598.41;;;9.12;68.47
11415;BME280;5763;42.714;23.244;2023-12-14T00:21:10;93413.72;;;8.13;67.87
11415;BME280;5763;42.714;23.244;2023-12-14T00:23:37;93561.81;;;9.04;68.37
11415;BME280;5763;42.714;23.244;2023-12-14T00:26:04;93485.56;;;8.48;68.60
11415;BME280;5763;42.714;23.244;2023-12-14T00:28:32;93402.19;;;7.71;68.98
11415;BME280;5763;42.714;23.244;2023-12-14T00:31:01;93538.63;;;8.85;68.42
11415;BME280;5763;42.714;23.244;2023-12-14T00:33:28;93572.06;;;9.09;68.43
11415;BME280;5763;42.714;23.244;2023-12-14T00:35:55;93540.69;;;8.90;68.75
11415;BME280;5763;42.714;23.244;2023-12-14T00:38:22;93484.31;;;7.70;69.33
11415;BME280;5763;42.714;23.244;2023-12-14T00:40:49;93532.94;;;8.74;69.61
11415;BME280;5763;42.714;23.244;2023-12-14T00:43:17;93561.03;;;8.66;69.91
11415;BME280;5763;42.714;23.244;2023-12-14T00:45:44;93528.59;;;8.12;70.35
11415;BME280;5763;42.714;23.244;2023-12-14T00:48:12;93509.53;;;8.12;70.66
11415;BME280;5763;42.714;23.244;2023-12-14T00:50:40;93571.75;;;8.46;70.63
11415;BME280;5763;42.714;23.244;2023-12-14T00:53:07;93471.44;;;8.03;70.53
11415;BME280;5763;42.714;23.244;2023-12-14T00:55:34;93396.22;;;7.58;70.20
11415;BME280;5763;42.714;23.244;2023-12-14T00:58:01;93443.09;;;7.86;70.16
11415;BME280;5763;42.714;23.244;2023-12-14T01:00:28;93583.31;;;8.64;69.99
11415;BME280;5763;42.714;23.244;2023-12-14T01:02:56;93565.84;;;8.71;69.85
11415;BME280;5763;42.714;23.244;2023-12-14T01:05:25;93370.59;;;7.41;69.44
11415;BME280;5763;42.714;23.244;2023-12-14T01:07:52;93371.00;;;7.25;69.46
11415;BME280;5763;42.714;23.244;2023-12-14T01:10:19;93575.06;;;8.73;69.61
11415;BME280;5763;42.714;23.244;2023-12-14T01:12:46;93538.28;;;8.69;69.45
11415;BME280;5763;42.714;23.244;2023-12-14T01:15:14;93580.56;;;8.64;69.61
11415;BME280;5763;42.714;23.244;2023-12-14T01:17:41;93449.72;;;7.94;69.83
11415;BME280;5763;42.714;23.244;2023-12-14T01:20:08;93376.97;;;7.38;70.18
11415;BME280;5763;42.714;23.244;2023-12-14T01:22:37;93460.31;;;7.92;69.94
11415;BME280;5763;42.714;23.244;2023-12-14T01:25:05;93537.88;;;8.61;69.70
11415;BME280;5763;42.714;23.244;2023-12-14T01:27:32;93469.66;;;7.67;69.70
11415;BME280;5763;42.714;23.244;2023-12-14T01:29:59;93397.94;;;7.70;69.50
11415;BME280;5763;42.714;23.244;2023-12-14T01:32:26;93456.16;;;8.05;69.49
11415;BME280;5763;42.714;23.244;2023-12-14T01:34:53;93431.78;;;7.78;69.41
11415;BME280;5763;42.714;23.244;2023-12-14T01:37:20;93558.22;;;8.75;69.02
11415;BME280;5763;42.714;23.244;2023-12-14T01:39:49;93543.91;;;8.65;69.18
11415;BME280;5763;42.714;23.244;2023-12-14T01:42:16;93540.00;;;8.57;69.32
11415;BME280;5763;42.714;23.244;2023-12-14T01:44:44;93547.03;;;8.49;69.42
11415;BME280;5763;42.714;23.244;2023-12-14T01:47:11;93553.00;;;8.62;69.14
11415;BME280;5763;42.714;23.244;2023-12-14T01:49:38;93409.91;;;7.40;68.98
11415;BME280;5763;42.714;23.244;2023-12-14T01:52:07;93549.09;;;8.63;68.97
11415;BME280;5763;42.714;23.244;2023-12-14T01:54:34;93465.09;;;8.06;69.09
11415;BME280;5763;42.714;23.244;2023-12-14T01:57:02;93530.34;;;8.33;69.58
11415;BME280;5763;42.714;23.244;2023-12-14T01:59:29;93529.41;;;8.36;69.85
11415;BME280;5763;42.714;23.244;2023-12-14T02:01:57;93565.53;;;8.45;70.27
11415;BME280;5763;42.714;23.244;2023-12-14T02:04:25;93524.28;;;8.29;70.22
11415;BME280;5763;42.714;23.244;2023-12-14T02:06:52;93394.25;;;7.26;70.14
11415;BME280;5763;42.714;23.244;2023-12-14T02:09:19;93560.91;;;8.37;70.20
11415;BME280;5763;42.714;23.244;2023-12-14T02:11:47;93403.41;;;7.70;70.13
11415;BME280;5763;42.714;23.244;2023-12-14T02:14:15;93423.03;;;7.74;70.18
11415;BME280;5763;42.714;23.244;2023-12-14T02:16:42;93428.63;;;7.80;70.23
11415;BME280;5763;42.714;23.244;2023-12-14T02:19:10;93561.25;;;8.53;70.33
11415;BME280;5763;42.714;23.244;2023-12-14T02:21:37;93520.47;;;8.59;69.95
11415;BME280;5763;42.714;23.244;2023-12-14T02:24:06;93511.06;;;8.60;69.52
11415;BME280;5763;42.714;23.244;2023-12-14T02:26:33;93342.75;;;7.46;69.47
11415;BME280;5763;42.714;23.244;2023-12-14T02:29:00;93421.22;;;8.04;69.39
11415;BME280;5763;42.714;23.244;2023-12-14T02:31:27;93511.78;;;8.69;69.24
11415;BME280;5763;42.714;23.244;2023-12-14T02:33:54;93439.97;;;8.02;69.49
11415;BME280;5763;42.714;23.244;2023-12-14T02:36:22;93437.59;;;8.18;69.85
11415;BME280;5763;42.714;23.244;2023-12-14T02:38:49;93427.16;;;7.70;70.07
11415;BME280;5763;42.714;23.244;2023-12-14T02:41:17;93500.28;;;8.65;70.00
11415;BME280;5763;42.714;23.244;2023-12-14T02:43:44;93546.34;;;8.63;70.33
11415;BME280;5763;42.714;23.244;2023-12-14T02:46:12;93503.00;;;8.65;70.32
11415;BME280;5763;42.714;23.244;2023-12-14T02:48:41;93493.63;;;8.43;70.30
11415;BME280;5763;42.714;23.244;2023-12-14T02:51:13;93546.44;;;8.69;70.59
11415;BME280;5763;42.714;23.244;2023-12-14T02:53:41;93548.78;;;8.61;70.21
11415;BME280;5763;42.714;23.244;2023-12-14T02:56:10;93429.22;;;8.31;69.15
11415;BME280;5763;42.714;23.244;2023-12-14T02:58:39;93400.66;;;7.70;69.71
11415;BME280;5763;42.714;23.244;2023-12-14T03:01:06;93494.94;;;8.24;70.14
11415;BME280;5763;42.714;23.244;2023-12-14T03:03:33;93479.06;;;7.99;70.11
11415;BME280;5763;42.714;23.244;2023-12-14T03:06:00;93500.28;;;8.65;69.53
11415;BME280;5763;42.714;23.244;2023-12-14T03:08:27;93517.56;;;8.86;69.72
11415;BME280;5763;42.714;23.244;2023-12-14T03:10:54;93511.88;;;8.51;69.60
11415;BME280;5763;42.714;23.244;2023-12-14T03:13:21;93524.06;;;8.88;69.67
11415;BME280;5763;42.714;23.244;2023-12-14T03:15:50;93440.34;;;8.42;68.91
11415;BME280;5763;42.714;23.244;2023-12-14T03:18:17;93455.88;;;8.50;69.28
11415;BME280;5763;42.714;23.244;2023-12-14T03:20:45;93514.19;;;9.05;69.08
11415;BME280;5763;42.714;23.244;2023-12-14T03:23:12;93509.47;;;9.06;68.85
11415;BME280;5763;42.714;23.244;2023-12-14T03:25:39;93373.22;;;8.06;69.12
11415;BME280;5763;42.714;23.244;2023-12-14T03:28:07;93441.44;;;8.35;68.89
11415;BME280;5763;42.714;23.244;2023-12-14T03:30:34;93497.09;;;9.19;68.17
11415;BME280;5763;42.714;23.244;2023-12-14T03:33:03;93481.28;;;9.09;68.22
11415;BME280;5763;42.714;23.244;2023-12-14T03:35:32;93429.63;;;8.38;68.22
11415;BME280;5763;42.714;23.244;2023-12-14T03:37:59;93480.50;;;8.94;68.95
11415;BME280;5763;42.714;23.244;2023-12-14T03:40:27;93391.94;;;8.13;69.01
11415;BME280;5763;42.714;23.244;2023-12-14T03:42:54;93408.13;;;8.55;69.36
11415;BME280;5763;42.714;23.244;2023-12-14T03:45:21;93494.13;;;8.94;69.18
11415;BME280;5763;42.714;23.244;2023-12-14T03:47:48;93405.97;;;8.59;69.08
11415;BME280;5763;42.714;23.244;2023-12-14T03:50:17;93363.72;;;8.25;68.95
11415;BME280;5763;42.714;23.244;2023-12-14T03:52:45;93316.94;;;7.89;68.92
11415;BME280;5763;42.714;23.244;2023-12-14T03:55:12;93385.63;;;8.45;68.46
11415;BME280;5763;42.714;23.244;2023-12-14T03:57:40;93449.47;;;8.91;68.74
11415;BME280;5763;42.714;23.244;2023-12-14T04:00:10;93301.09;;;7.78;68.53
11415;BME280;5763;42.714;23.244;2023-12-14T04:02:37;93263.19;;;7.75;69.02
11415;BME280;5763;42.714;23.244;2023-12-14T04:05:05;93478.53;;;9.09;68.91
11415;BME280;5763;42.714;23.244;2023-12-14T04:07:34;93403.94;;;8.68;68.77
11415;BME280;5763;42.714;23.244;2023-12-14T04:10:02;93312.72;;;8.02;68.73
11415;BME280;5763;42.714;23.244;2023-12-14T04:12:29;93508.94;;;9.16;68.75
11415;BME280;5763;42.714;23.244;2023-12-14T04:14:56;93466.41;;;9.10;68.90
11415;BME280;5763;42.714;23.244;2023-12-14T04:17:23;93528.31;;;9.18;68.65
11415;BME280;5763;42.714;23.244;2023-12-14T04:19:50;93404.97;;;8.85;68.25
11415;BME280;5763;42.714;23.244;2023-12-14T04:22:17;93400.69;;;8.55;68.34
11415;BME280;5763;42.714;23.244;2023-12-14T04:24:46;93346.44;;;8.05;68.33
11415;BME280;5763;42.714;23.244;2023-12-14T04:27:14;93458.13;;;9.04;69.25
11415;BME280;5763;42.714;23.244;2023-12-14T04:29:41;93303.59;;;7.91;68.65
11415;BME280;5763;42.714;23.244;2023-12-14T04:32:08;93409.84;;;8.67;69.04
11415;BME280;5763;42.714;23.244;2023-12-14T04:34:35;93433.09;;;8.77;68.57
11415;BME280;5763;42.714;23.244;2023-12-14T04:37:03;93347.69;;;8.18;68.24
11415;BME280;5763;42.714;23.244;2023-12-14T04:39:30;93490.13;;;9.18;68.00
11415;BME280;5763;42.714;23.244;2023-12-14T04:41:59;93400.63;;;8.26;68.08
11415;BME280;5763;42.714;23.244;2023-12-14T04:44:26;93430.25;;;8.71;68.49
11415;BME280;5763;42.714;23.244;2023-12-14T04:46:53;93447.38;;;8.86;68.87
11415;BME280;5763;42.714;23.244;2023-12-14T04:49:21;93454.72;;;8.42;69.12
11415;BME280;5763;42.714;23.244;2023-12-14T04:51:48;93506.00;;;9.05;68.53
11415;BME280;5763;42.714;23.244;2023-12-14T04:54:15;93475.22;;;8.90;68.89
11415;BME280;5763;42.714;23.244;2023-12-14T04:56:45;93493.69;;;8.95;69.39
11415;BME280;5763;42.714;23.244;2023-12-14T04:59:14;93510.41;;;8.88;69.46
11415;BME280;5763;42.714;23.244;2023-12-14T05:01:41;93481.78;;;8.69;69.12
11415;BME280;5763;42.714;23.244;2023-12-14T05:04:08;93410.47;;;8.47;68.80
11415;BME280;5763;42.714;23.244;2023-12-14T05:06:34;93322.88;;;7.78;69.50
11415;BME280;5763;42.714;23.244;2023-12-14T05:09:02;93391.00;;;8.16;69.67
11415;BME280;5763;42.714;23.244;2023-12-14T05:11:31;93422.41;;;8.50;69.50
11415;BME280;5763;42.714;23.244;2023-12-14T05:13:58;93442.81;;;8.54;69.70
11415;BME280;5763;42.714;23.244;2023-12-14T05:16:27;93442.44;;;8.47;69.23
11415;BME280;5763;42.714;23.244;2023-12-14T05:18:54;93426.47;;;8.54;69.52
11415;BME280;5763;42.714;23.244;2023-12-14T05:21:22;93490.56;;;9.02;69.49
11415;BME280;5763;42.714;23.244;2023-12-14T05:23:49;93494.44;;;8.96;69.81
11415;BME280;5763;42.714;23.244;2023-12-14T05:26:17;93390.69;;;8.23;69.87
11415;BME280;5763;42.714;23.244;2023-12-14T05:28:45;93387.53;;;8.16;69.15
11415;BME280;5763;42.714;23.244;2023-12-14T05:31:12;93413.06;;;8.27;69.83
11415;BME280;5763;42.714;23.244;2023-12-14T05:33:40;93446.59;;;8.57;69.94
11415;BME280;5763;42.714;23.244;2023-12-14T05:36:08;93410.88;;;8.08;69.75
11415;BME280;5763;42.714;23.244;2023-12-14T05:38:36;93580.03;;;8.98;69.71
11415;BME280;5763;42.714;23.244;2023-12-14T05:41:05;93510.03;;;8.95;69.90
11415;BME280;5763;42.714;23.244;2023-12-14T05:43:32;93384.91;;;7.98;69.62
11415;BME280;5763;42.714;23.244;2023-12-14T05:45:59;93383.13;;;7.95;70.32
11415;BME280;5763;42.714;23.244;2023-12-14T05:48:26;93401.34;;;8.12;70.01
11415;BME280;5763;42.714;23.244;2023-12-14T05:50:56;93404.28;;;8.00;70.19
11415;BME280;5763;42.714;23.244;2023-12-14T05:53:24;93407.13;;;8.05;69.66
11415;BME280;5763;42.714;23.244;2023-12-14T05:55:51;93526.41;;;8.95;70.50
11415;BME280;5763;42.714;23.244;2023-12-14T05:58:18;93482.66;;;8.52;70.46
11415;BME280;5763;42.714;23.244;2023-12-14T06:00:45;93522.38;;;9.05;70.04
11415;BME280;5763;42.714;23.244;2023-12-14T06:03:12;93436.97;;;8.47;69.40
11415;BME280;5763;42.714;23.244;2023-12-14T06:05:39;93490.41;;;8.68;69.35
11415;BME280;5763;42.714;23.244;2023-12-14T06:08:08;93437.09;;;8.52;69.19
11415;BME280;5763;42.714;23.244;2023-12-14T06:10:35;93523.44;;;9.08;69.49
11415;BME280;5763;42.714;23.244;2023-12-14T06:13:03;93472.94;;;8.74;69.18
11415;BME280;5763;42.714;23.244;2023-12-14T06:15:30;93363.84;;;8.07;68.47
11415;BME280;5763;42.714;23.244;2023-12-14T06:17:59;93504.78;;;8.92;68.42
11415;BME280;5763;42.714;23.244;2023-12-14T06:20:26;93496.84;;;8.79;68.87
11415;BME280;5763;42.714;23.244;2023-12-14T06:22:53;93546.69;;;9.32;68.58
11415;BME280;5763;42.714;23.244;2023-12-14T06:25:22;93547.16;;;9.31;68.17
11415;BME280;5763;42.714;23.244;2023-12-14T06:27:49;93563.38;;;9.34;68.34
11415;BME280;5763;42.714;23.244;2023-12-14T06:30:17;93467.44;;;8.60;68.36
11415;BME280;5763;42.714;23.244;2023-12-14T06:32:44;93562.25;;;9.55;67.64
11415;BME280;5763;42.714;23.244;2023-12-14T06:35:11;93469.97;;;9.01;67.84
11415;BME280;5763;42.714;23.244;2023-12-14T06:37:38;93526.13;;;8.93;67.84
11415;BME280;5763;42.714;23.244;2023-12-14T06:40:08;93453.03;;;8.83;67.65
11415;BME280;5763;42.714;23.244;2023-12-14T06:42:37;93579.19;;;9.59;67.55
11415;BME280;5763;42.714;23.244;2023-12-14T06:45:05;93574.78;;;9.62;67.12
11415;BME280;5763;42.714;23.244;2023-12-14T06:47:33;93512.34;;;9.40;66.31
11415;BME280;5763;42.714;23.244;2023-12-14T06:50:00;93572.41;;;9.69;66.69
11415;BME280;5763;42.714;23.244;2023-12-14T06:52:27;93606.59;;;9.79;67.04
11415;BME280;5763;42.714;23.244;2023-12-14T06:54:55;93537.69;;;9.55;66.69
11415;BME280;5763;42.714;23.244;2023-12-14T06:57:22;93609.34;;;9.79;66.62
11415;BME280;5763;42.714;23.244;2023-12-14T06:59:50;93489.66;;;9.49;66.03
11415;BME280;5763;42.714;23.244;2023-12-14T07:02:17;93569.78;;;9.89;66.27
11415;BME280;5763;42.714;23.244;2023-12-14T07:04:44;93501.25;;;9.29;65.49
11415;BME280;5763;42.714;23.244;2023-12-14T07:07:12;93582.69;;;10.03;65.68
11415;BME280;5763;42.714;23.244;2023-12-14T07:09:39;93556.88;;;9.90;65.35
11415;BME280;5763;42.714;23.244;2023-12-14T07:12:07;93602.78;;;10.15;65.20
11415;BME280;5763;42.714;23.244;2023-12-14T07:14:37;93507.06;;;9.66;64.32
11415;BME280;5763;42.714;23.244;2023-12-14T07:17:05;93489.06;;;9.59;64.50
11415;BME280;5763;42.714;23.244;2023-12-14T07:19:33;93473.84;;;9.24;65.33
11415;BME280;5763;42.714;23.244;2023-12-14T07:22:01;93503.00;;;9.47;65.56
11415;BME280;5763;42.714;23.244;2023-12-14T07:24:28;93616.53;;;10.20;65.75
11415;BME280;5763;42.714;23.244;2023-12-14T07:26:56;93617.56;;;10.08;65.13
11415;BME280;5763;42.714;23.244;2023-12-14T07:29:23;93442.31;;;9.23;64.82
11415;BME280;5763;42.714;23.244;2023-12-14T07:31:50;93547.16;;;10.03;64.65
11415;BME280;5763;42.714;23.244;2023-12-14T07:34:19;93517.63;;;9.73;64.43
11415;BME280;5763;42.714;23.244;2023-12-14T07:36:46;93594.81;;;10.31;64.04
11415;BME280;5763;42.714;23.244;2023-12-14T07:39:14;93567.81;;;10.19;64.15
11415;BME280;5763;42.714;23.244;2023-12-14T07:41:41;93634.09;;;10.63;63.56
11415;BME280;5763;42.714;23.244;2023-12-14T07:44:08;93604.81;;;10.69;62.86
11415;BME280;5763;42.714;23.244;2023-12-14T07:46:35;93616.88;;;10.77;62.29
11415;BME280;5763;42.714;23.244;2023-12-14T07:49:07;93540.13;;;10.31;62.53
11415;BME280;5763;42.714;23.244;2023-12-14T07:51:35;93544.72;;;10.20;62.44
11415;BME280;5763;42.714;23.244;2023-12-14T07:54:03;93631.31;;;10.77;61.90
11415;BME280;5763;42.714;23.244;2023-12-14T07:56:30;93561.94;;;10.60;62.06
11415;BME280;5763;42.714;23.244;2023-12-14T07:58:58;93556.00;;;10.82;61.37
11415;BME280;5763;42.714;23.244;2023-12-14T08:01:26;93554.00;;;10.82;61.62
11415;BME280;5763;42.714;23.244;2023-12-14T08:03:53;93537.94;;;10.90;60.54
11415;BME280;5763;42.714;23.244;2023-12-14T08:06:20;93663.28;;;11.60;60.02
11415;BME280;5763;42.714;23.244;2023-12-14T08:08:49;93618.00;;;11.45;60.01
11415;BME280;5763;42.714;23.244;2023-12-14T08:11:17;93620.38;;;11.57;60.13
11415;BME280;5763;42.714;23.244;2023-12-14T08:13:44;93502.22;;;10.79;59.34
11415;BME280;5763;42.714;23.244;2023-12-14T08:16:11;93561.47;;;11.22;59.60
11415;BME280;5763;42.714;23.244;2023-12-14T08:18:38;93537.59;;;11.02;59.50
11415;BME280;5763;42.714;23.244;2023-12-14T08:21:06;93471.63;;;10.55;59.48
11415;BME280;5763;42.714;23.244;2023-12-14T08:23:33;93526.25;;;11.09;59.69
11415;BME280;5763;42.714;23.244;2023-12-14T08:26:03;93594.44;;;11.53;59.62
11415;BME280;5763;42.714;23.244;2023-12-14T08:28:31;93511.41;;;10.76;59.59
11415;BME280;5763;42.714;23.244;2023-12-14T08:30:58;93592.44;;;11.53;59.26
11415;BME280;5763;42.714;23.244;2023-12-14T08:33:27;93630.91;;;11.84;59.67
11415;BME280;5763;42.714;23.244;2023-12-14T08:35:55;93578.47;;;11.51;59.32
11415;BME280;5763;42.714;23.244;2023-12-14T08:38:22;93627.09;;;12.02;59.25
11415;BME280;5763;42.714;23.244;2023-12-14T08:40:50;93618.16;;;12.07;58.97
11415;BME280;5763;42.714;23.244;2023-12-14T08:43:19;93570.81;;;11.81;59.13
11415;BME280;5763;42.714;23.244;2023-12-14T08:45:47;93479.00;;;11.14;58.95
11415;BME280;5763;42.714;23.244;2023-12-14T08:48:14;93621.91;;;12.35;58.67
11415;BME280;5763;42.714;23.244;2023-12-14T08:50:41;93520.69;;;11.49;58.81
11415;BME280;5763;42.714;23.244;2023-12-14T08:53:07;93670.84;;;12.42;58.80
11415;BME280;5763;42.714;23.244;2023-12-14T08:55:35;93646.28;;;12.58;58.35
11415;BME280;5763;42.714;23.244;2023-12-14T08:58:02;93525.63;;;12.02;57.89
11415;BME280;5763;42.714;23.244;2023-12-14T09:00:30;93577.63;;;12.16;56.96
11415;BME280;5763;42.714;23.244;2023-12-14T09:02:58;93664.69;;;12.83;56.61
11415;BME280;5763;42.714;23.244;2023-12-14T09:05:25;93566.13;;;12.49;57.21
11415;BME280;5763;42.714;23.244;2023-12-14T09:07:52;93581.00;;;12.37;57.32
11415;BME280;5763;42.714;23.244;2023-12-14T09:10:21;93637.72;;;13.18;55.97
11415;BME280;5763;42.714;23.244;2023-12-14T09:12:49;93653.91;;;13.16;55.90
11415;BME280;5763;42.714;23.244;2023-12-14T09:15:16;93602.75;;;12.77;56.12
11415;BME280;5763;42.714;23.244;2023-12-14T09:17:45;93627.03;;;12.89;56.93
11415;BME280;5763;42.714;23.244;2023-12-14T09:20:13;93602.44;;;12.69;57.03
11415;BME280;5763;42.714;23.244;2023-12-14T09:22:40;93610.78;;;12.86;56.65
11415;BME280;5763;42.714;23.244;2023-12-14T09:25:08;93482.06;;;12.04;56.55
11415;BME280;5763;42.714;23.244;2023-12-14T09:27:35;93632.91;;;13.08;56.69
11415;BME280;5763;42.714;23.244;2023-12-14T09:30:04;93580.78;;;12.77;56.18
11415;BME280;5763;42.714;23.244;2023-12-14T09:32:32;93598.03;;;12.83;56.11
11415;BME280;5763;42.714;23.244;2023-12-14T09:35:01;93568.97;;;12.65;55.66
11415;BME280;5763;42.714;23.244;2023-12-14T09:37:28;93627.25;;;12.86;55.71
11415;BME280;5763;42.714;23.244;2023-12-14T09:39:56;93655.91;;;12.79;60.29
11415;BME280;5763;42.714;23.244;2023-12-14T09:42:23;93552.50;;;11.92;62.35
11415;BME280;5763;42.714;23.244;2023-12-14T09:44:52;93652.31;;;12.31;63.39
11415;BME280;5763;42.714;23.244;2023-12-14T09:47:20;93600.84;;;11.95;63.51
11415;BME280;5763;42.714;23.244;2023-12-14T09:49:48;93593.00;;;12.08;63.63
11415;BME280;5763;42.714;23.244;2023-12-14T09:52:18;93647.31;;;12.66;63.05
11415;BME280;5763;42.714;23.244;2023-12-14T09:54:45;93561.63;;;11.84;63.15
11415;BME280;5763;42.714;23.244;2023-12-14T09:57:12;93521.66;;;11.72;63.28
11415;BME280;5763;42.714;23.244;2023-12-14T09:59:40;93584.38;;;12.21;62.08
11415;BME280;5763;42.714;23.244;2023-12-14T10:02:09;93590.19;;;12.28;61.91
11415;BME280;5763;42.714;23.244;2023-12-14T10:04:37;93599.13;;;12.23;62.10
11415;BME280;5763;42.714;23.244;2023-12-14T10:07:04;93635.22;;;12.47;61.49
11415;BME280;5763;42.714;23.244;2023-12-14T10:09:36;93598.16;;;12.26;61.72
11415;BME280;5763;42.714;23.244;2023-12-14T10:12:06;93660.78;;;12.64;62.39
11415;BME280;5763;42.714;23.244;2023-12-14T10:14:34;93659.00;;;12.61;62.86
11415;BME280;5763;42.714;23.244;2023-12-14T10:17:14;93668.31;;;12.69;62.74
11415;BME280;5763;42.714;23.244;2023-12-14T10:19:43;93607.72;;;12.36;62.82
11415;BME280;5763;42.714;23.244;2023-12-14T10:22:10;93597.47;;;12.37;63.11
11415;BME280;5763;42.714;23.244;2023-12-14T10:24:42;93482.78;;;11.68;63.30
11415;BME280;5763;42.714;23.244;2023-12-14T10:27:09;93640.69;;;12.78;64.21
11415;BME280;5763;42.714;23.244;2023-12-14T10:29:37;93518.31;;;11.88;64.55
11415;BME280;5763;42.714;23.244;2023-12-14T10:32:05;93591.09;;;12.20;65.63
11415;BME280;5763;42.714;23.244;2023-12-14T10:34:34;93582.03;;;12.08;68.00
11415;BME280;5763;42.714;23.244;2023-12-14T10:37:04;93642.69;;;12.47;70.18
11415;BME280;5763;42.714;23.244;2023-12-14T10:39:33;93592.81;;;11.86;70.89
11415;BME280;5763;42.714;23.244;2023-12-14T10:42:04;93584.81;;;11.83;71.34
11415;BME280;5763;42.714;23.244;2023-12-14T10:44:36;93664.69;;;12.21;72.15
11415;BME280;5763;42.714;23.244;2023-12-14T10:47:03;93535.25;;;11.15;71.40
11415;BME280;5763;42.714;23.244;2023-12-14T10:49:32;93681.06;;;12.16;71.75
11415;BME280;5763;42.714;23.244;2023-12-14T10:52:01;93508.03;;;10.86;72.02
11415;BME280;5763;42.714;23.244;2023-12-14T10:54:32;93524.81;;;10.94;72.37
11415;BME280;5763;42.714;23.244;2023-12-14T10:57:04;93603.03;;;11.20;72.44
11415;BME280;5763;42.714;23.244;2023-12-14T10:59:33;93694.69;;;11.85;72.23
11415;BME280;5763;42.714;23.244;2023-12-14T11:02:07;93712.88;;;11.62;72.46
11415;BME280;5763;42.714;23.244;2023-12-14T11:04:54;93551.78;;;10.46;71.87
11415;BME280;5763;42.714;23.244;2023-12-14T11:07:46;93722.69;;;11.34;71.89
11415;BME280;5763;42.714;23.244;2023-12-14T11:10:14;93708.66;;;11.27;71.81
11415;BME280;5763;42.714;23.244;2023-12-14T11:12:54;93567.63;;;10.08;71.24
11415;BME280;5763;42.714;23.244;2023-12-14T11:15:23;93690.19;;;10.73;71.14
11415;BME280;5763;42.714;23.244;2023-12-14T11:18:27;93656.94;;;10.45;70.54
11415;BME280;5763;42.714;23.244;2023-12-14T11:20:57;93681.00;;;10.12;70.97
11415;BME280;5763;42.714;23.244;2023-12-14T11:23:28;93715.88;;;10.46;70.93
11415;BME280;5763;42.714;23.244;2023-12-14T11:25:58;93760.28;;;10.85;71.56
11415;BME280;5763;42.714;23.244;2023-12-14T11:28:27;93692.59;;;10.36;71.22
11415;BME280;5763;42.714;23.244;2023-12-14T11:30:55;93760.13;;;10.59;70.04
11415;BME280;5763;42.714;23.244;2023-12-14T11:33:23;93675.69;;;9.94;69.45
11415;BME280;5763;42.714;23.244;2023-12-14T11:35:51;93721.28;;;10.03;69.71
11415;BME280;5763;42.714;23.244;2023-12-14T11:38:18;93714.84;;;10.15;70.04
11415;BME280;5763;42.714;23.244;2023-12-14T11:40:47;93727.66;;;10.23;70.32
11415;BME280;5763;42.714;23.244;2023-12-14T11:43:15;93774.19;;;10.52;69.98
11415;BME280;5763;42.714;23.244;2023-12-14T11:45:43;93682.84;;;9.92;69.55
11415;BME280;5763;42.714;23.244;2023-12-14T11:48:12;93806.44;;;10.48;69.71
11415;BME280;5763;42.714;23.244;2023-12-14T11:50:40;93832.81;;;10.51;70.03
11415;BME280;5763;42.714;23.244;2023-12-14T11:53:08;93800.19;;;10.48;69.35
11415;BME280;5763;42.714;23.244;2023-12-14T11:55:37;93832.09;;;10.51;69.66
11415;BME280;5763;42.714;23.244;2023-12-14T11:58:07;93657.38;;;9.33;69.19
11415;BME280;5763;42.714;23.244;2023-12-14T12:00:36;93643.75;;;9.33;69.67
11415;BME280;5763;42.714;23.244;2023-12-14T12:03:14;93661.25;;;9.27;69.48
11415;BME280;5763;42.714;23.244;2023-12-14T12:05:43;93657.34;;;9.19;69.94
11415;BME280;5763;42.714;23.244;2023-12-14T12:08:17;93668.78;;;9.08;70.53
11415;BME280;5763;42.714;23.244;2023-12-14T12:10:49;93628.22;;;9.01;70.03
11415;BME280;5763;42.714;23.244;2023-12-14T12:13:19;93741.03;;;9.69;70.59
11415;BME280;5763;42.714;23.244;2023-12-14T12:15:49;93650.97;;;8.98;70.81
11415;BME280;5763;42.714;23.244;2023-12-14T12:18:20;93854.72;;;10.13;71.12
11415;BME280;5763;42.714;23.244;2023-12-14T12:20:51;93852.00;;;10.13;71.05
11415;BME280;5763;42.714;23.244;2023-12-14T12:23:19;93771.91;;;9.60;71.32
11415;BME280;5763;42.714;23.244;2023-12-14T12:25:47;93775.34;;;9.61;71.24
11415;BME280;5763;42.714;23.244;2023-12-14T12:28:16;93789.78;;;9.61;71.43
11415;BME280;5763;42.714;23.244;2023-12-14T12:30:43;93758.56;;;9.53;71.56
11415;BME280;5763;42.714;23.244;2023-12-14T12:33:12;93843.59;;;9.93;71.68
11415;BME280;5763;42.714;23.244;2023-12-14T12:35:42;93864.03;;;9.98;71.56
11415;BME280;5763;42.714;23.244;2023-12-14T12:38:09;93842.78;;;10.02;71.41
11415;BME280;5763;42.714;23.244;2023-12-14T12:40:37;93861.22;;;10.16;71.35
11415;BME280;5763;42.714;23.244;2023-12-14T12:43:05;93668.13;;;8.90;71.56
11415;BME280;5763;42.714;23.244;2023-12-14T12:45:32;93726.00;;;9.26;72.17
11415;BME280;5763;42.714;23.244;2023-12-14T12:48:03;93848.00;;;9.91;72.71
11415;BME280;5763;42.714;23.244;2023-12-14T12:50:33;93810.94;;;9.75;72.37
11415;BME280;5763;42.714;23.244;2023-12-14T12:53:02;93752.19;;;9.33;72.53
11415;BME280;5763;42.714;23.244;2023-12-14T12:55:29;93860.13;;;9.99;72.18
11415;BME280;5763;42.714;23.244;2023-12-14T12:58:00;93819.41;;;9.77;72.29
11415;BME280;5763;42.714;23.244;2023-12-14T13:00:31;93856.44;;;9.78;72.49
11415;BME280;5763;42.714;23.244;2023-12-14T13:03:03;93664.44;;;8.46;72.91
11415;BME280;5763;42.714;23.244;2023-12-14T13:05:30;93840.66;;;9.50;72.82
11415;BME280;5763;42.714;23.244;2023-12-14T13:07:57;93788.41;;;9.33;72.70
11415;BME280;5763;42.714;23.244;2023-12-14T13:10:28;93733.22;;;9.06;72.06
11415;BME280;5763;42.714;23.244;2023-12-14T13:12:59;93874.16;;;9.83;72.01